sensor_id;sensor_type;location;lat;lon;timestamp;P1;durP1;ratioP1;P2;durP2;ratioP2
51066;SDS011;37112;45.892;-123.962;2023-03-13T00:00:25;9.00;;;1.20;;
51066;SDS011;37112;45.892;-123.962;2023-03-13T00:02:54;10.00;;;1.80;;
51066;SDS011;37112;45.892;-123.962;2023-03-13T00:05:08;10.90;;;2.20;;
51066;SDS011;37112;45.892;-123.962;2023-03-13T00:07:21;7.00;;;1.40;;
51066;SDS011;37112;45.892;-123.962;2023-03-13T00:09:34;15.60;;;2.70;;
51066;SDS011;37112;45.892;-123.962;2023-03-13T00:11:49;18.50;;;2.70;;
51066;SDS011;37112;45.892;-123.962;2023-03-13T00:14:05;25.70;;;3.70;;
51066;SDS011;37112;45.892;-123.962;2023-03-13T00:16:18;16.70;;;2.60;;
51066;SDS011;37112;45.892;-123.962;2023-03-13T00:18:32;10.10;;;2.20;;
51066;SDS011;37112;45.892;-123.962;2023-03-13T00:20:46;10.20;;;1.80;;
51066;SDS011;37112;45.892;-123.962;2023-03-13T00:23:08;9.20;;;1.40;;
51066;SDS011;37112;45.892;-123.962;2023-03-13T00:25:22;7.40;;;1.20;;
51066;SDS011;37112;45.892;-123.962;2023-03-13T00:27:35;6.00;;;1.60;;
51066;SDS011;37112;45.892;-123.962;2023-03-13T00:29:49;3.70;;;1.10;;
51066;SDS011;37112;45.892;-123.962;2023-03-13T00:32:02;6.60;;;1.10;;
51066;SDS011;37112;45.892;-123.962;2023-03-13T00:34:17;14.80;;;2.10;;
51066;SDS011;37112;45.892;-123.962;2023-03-13T00:36:31;18.70;;;3.10;;
51066;SDS011;37112;45.892;-123.962;2023-03-13T00:38:45;10.50;;;1.90;;
51066;SDS011;37112;45.892;-123.962;2023-03-13T00:41:02;14.40;;;1.70;;
51066;SDS011;37112;45.892;-123.962;2023-03-13T00:43:18;4.70;;;1.20;;
51066;SDS011;37112;45.892;-123.962;2023-03-13T00:45:32;3.00;;;0.70;;
51066;SDS011;37112;45.892;-123.962;2023-03-13T00:47:46;5.90;;;0.80;;
51066;SDS011;37112;45.892;-123.962;2023-03-13T00:50:03;2.70;;;0.90;;
51066;SDS011;37112;45.892;-123.962;2023-03-13T00:52:16;5.70;;;1.40;;
51066;SDS011;37112;45.892;-123.962;2023-03-13T00:54:30;2.80;;;0.70;;
51066;SDS011;37112;45.892;-123.962;2023-03-13T00:56:44;1.10;;;0.70;;
51066;SDS011;37112;45.892;-123.962;2023-03-13T00:58:58;8.70;;;1.30;;
51066;SDS011;37112;45.892;-123.962;2023-03-13T01:01:12;6.50;;;1.20;;
51066;SDS011;37112;45.892;-123.962;2023-03-13T01:03:28;6.50;;;1.30;;
51066;SDS011;37112;45.892;-123.962;2023-03-13T01:05:42;5.20;;;1.00;;
51066;SDS011;37112;45.892;-123.962;2023-03-13T01:07:55;2.50;;;0.50;;
51066;SDS011;37112;45.892;-123.962;2023-03-13T01:10:09;8.40;;;1.60;;
51066;SDS011;37112;45.892;-123.962;2023-03-13T01:12:22;8.70;;;1.50;;
51066;SDS011;37112;45.892;-123.962;2023-03-13T01:14:36;5.60;;;1.40;;
51066;SDS011;37112;45.892;-123.962;2023-03-13T01:16:50;8.10;;;1.60;;
51066;SDS011;37112;45.892;-123.962;2023-03-13T01:19:03;1.80;;;0.60;;
51066;SDS011;37112;45.892;-123.962;2023-03-13T01:21:20;11.50;;;2.10;;
51066;SDS011;37112;45.892;-123.962;2023-03-13T01:23:34;6.70;;;1.50;;
51066;SDS011;37112;45.892;-123.962;2023-03-13T01:25:48;12.00;;;2.00;;
51066;SDS011;37112;45.892;-123.962;2023-03-13T01:28:03;14.40;;;2.10;;
51066;SDS011;37112;45.892;-123.962;2023-03-13T01:30:17;12.60;;;2.30;;
51066;SDS011;37112;45.892;-123.962;2023-03-13T01:32:33;9.50;;;2.40;;
51066;SDS011;37112;45.892;-123.962;2023-03-13T01:34:48;12.40;;;3.00;;
51066;SDS011;37112;45.892;-123.962;2023-03-13T01:37:03;17.30;;;2.60;;
51066;SDS011;37112;45.892;-123.962;2023-03-13T01:39:17;9.20;;;1.90;;
51066;SDS011;37112;45.892;-123.962;2023-03-13T01:41:31;16.40;;;2.70;;
51066;SDS011;37112;45.892;-123.962;2023-03-13T01:43:45;14.90;;;3.10;;
51066;SDS011;37112;45.892;-123.962;2023-03-13T01:46:00;11.70;;;2.90;;
51066;SDS011;37112;45.892;-123.962;2023-03-13T01:48:48;9.00;;;2.20;;
51066;SDS011;37112;45.892;-123.962;2023-03-13T01:51:05;14.10;;;2.90;;
51066;SDS011;37112;45.892;-123.962;2023-03-13T01:53:23;11.30;;;2.20;;
51066;SDS011;37112;45.892;-123.962;2023-03-13T01:55:38;15.40;;;3.00;;
51066;SDS011;37112;45.892;-123.962;2023-03-13T01:57:52;15.30;;;2.40;;
51066;SDS011;37112;45.892;-123.962;2023-03-13T02:00:08;17.60;;;4.80;;
51066;SDS011;37112;45.892;-123.962;2023-03-13T02:02:24;14.00;;;3.40;;
51066;SDS011;37112;45.892;-123.962;2023-03-13T02:04:41;10.20;;;2.60;;
51066;SDS011;37112;45.892;-123.962;2023-03-13T02:06:58;16.50;;;2.90;;
51066;SDS011;37112;45.892;-123.962;2023-03-13T02:09:18;11.00;;;3.60;;
51066;SDS011;37112;45.892;-123.962;2023-03-13T02:11:42;17.80;;;2.70;;
51066;SDS011;37112;45.892;-123.962;2023-03-13T02:14:02;18.00;;;2.90;;
51066;SDS011;37112;45.892;-123.962;2023-03-13T02:16:16;24.00;;;2.90;;
51066;SDS011;37112;45.892;-123.962;2023-03-13T02:18:30;19.00;;;3.40;;
51066;SDS011;37112;45.892;-123.962;2023-03-13T02:20:45;15.20;;;3.60;;
51066;SDS011;37112;45.892;-123.962;2023-03-13T02:23:02;26.90;;;4.20;;
51066;SDS011;37112;45.892;-123.962;2023-03-13T02:27:41;22.80;;;3.50;;
51066;SDS011;37112;45.892;-123.962;2023-03-13T02:29:56;20.90;;;5.40;;
51066;SDS011;37112;45.892;-123.962;2023-03-13T02:32:11;21.70;;;5.50;;
51066;SDS011;37112;45.892;-123.962;2023-03-13T02:34:28;17.90;;;3.50;;
51066;SDS011;37112;45.892;-123.962;2023-03-13T02:36:44;24.50;;;5.00;;
51066;SDS011;37112;45.892;-123.962;2023-03-13T02:38:59;23.80;;;4.50;;
51066;SDS011;37112;45.892;-123.962;2023-03-13T02:41:15;19.40;;;3.40;;
51066;SDS011;37112;45.892;-123.962;2023-03-13T02:43:31;13.80;;;3.00;;
51066;SDS011;37112;45.892;-123.962;2023-03-13T02:48:28;11.80;;;2.40;;
51066;SDS011;37112;45.892;-123.962;2023-03-13T02:50:52;10.10;;;2.40;;
51066;SDS011;37112;45.892;-123.962;2023-03-13T02:53:14;16.90;;;3.20;;
51066;SDS011;37112;45.892;-123.962;2023-03-13T02:55:33;17.30;;;2.70;;
51066;SDS011;37112;45.892;-123.962;2023-03-13T02:57:49;18.60;;;3.70;;
51066;SDS011;37112;45.892;-123.962;2023-03-13T03:00:16;12.00;;;4.20;;
51066;SDS011;37112;45.892;-123.962;2023-03-13T03:02:37;23.90;;;4.40;;
51066;SDS011;37112;45.892;-123.962;2023-03-13T03:07:26;16.30;;;3.60;;
51066;SDS011;37112;45.892;-123.962;2023-03-13T03:10:03;14.20;;;2.50;;
51066;SDS011;37112;45.892;-123.962;2023-03-13T03:12:26;12.10;;;2.70;;
51066;SDS011;37112;45.892;-123.962;2023-03-13T03:14:50;24.10;;;3.70;;
51066;SDS011;37112;45.892;-123.962;2023-03-13T03:17:13;11.20;;;3.10;;
51066;SDS011;37112;45.892;-123.962;2023-03-13T03:19:32;17.30;;;4.40;;
51066;SDS011;37112;45.892;-123.962;2023-03-13T03:21:55;20.80;;;3.60;;
51066;SDS011;37112;45.892;-123.962;2023-03-13T03:24:14;18.90;;;2.80;;
51066;SDS011;37112;45.892;-123.962;2023-03-13T03:26:32;19.90;;;4.40;;
51066;SDS011;37112;45.892;-123.962;2023-03-13T03:29:00;23.40;;;3.50;;
51066;SDS011;37112;45.892;-123.962;2023-03-13T03:31:21;12.10;;;2.70;;
51066;SDS011;37112;45.892;-123.962;2023-03-13T03:33:39;15.20;;;2.90;;
51066;SDS011;37112;45.892;-123.962;2023-03-13T03:36:00;18.70;;;3.90;;
51066;SDS011;37112;45.892;-123.962;2023-03-13T03:38:34;13.30;;;2.50;;
51066;SDS011;37112;45.892;-123.962;2023-03-13T03:41:04;18.30;;;2.80;;
51066;SDS011;37112;45.892;-123.962;2023-03-13T03:43:33;10.00;;;1.90;;
51066;SDS011;37112;45.892;-123.962;2023-03-13T03:45:54;12.80;;;2.00;;
51066;SDS011;37112;45.892;-123.962;2023-03-13T03:48:19;18.70;;;4.20;;
51066;SDS011;37112;45.892;-123.962;2023-03-13T03:50:43;17.70;;;3.50;;
51066;SDS011;37112;45.892;-123.962;2023-03-13T03:53:05;24.70;;;5.30;;
51066;SDS011;37112;45.892;-123.962;2023-03-13T03:55:36;13.30;;;2.30;;
51066;SDS011;37112;45.892;-123.962;2023-03-13T03:58:09;10.50;;;2.40;;
51066;SDS011;37112;45.892;-123.962;2023-03-13T04:01:01;17.50;;;3.00;;
51066;SDS011;37112;45.892;-123.962;2023-03-13T04:03:27;18.30;;;4.00;;
51066;SDS011;37112;45.892;-123.962;2023-03-13T04:05:55;20.00;;;3.80;;
51066;SDS011;37112;45.892;-123.962;2023-03-13T04:08:24;10.00;;;1.80;;
51066;SDS011;37112;45.892;-123.962;2023-03-13T04:10:59;11.50;;;2.00;;
51066;SDS011;37112;45.892;-123.962;2023-03-13T04:13:47;15.00;;;2.40;;
51066;SDS011;37112;45.892;-123.962;2023-03-13T04:16:24;12.90;;;3.20;;
51066;SDS011;37112;45.892;-123.962;2023-03-13T04:18:56;7.70;;;2.20;;
51066;SDS011;37112;45.892;-123.962;2023-03-13T04:21:45;9.30;;;2.50;;
51066;SDS011;37112;45.892;-123.962;2023-03-13T04:24:14;25.10;;;3.70;;
51066;SDS011;37112;45.892;-123.962;2023-03-13T04:27:07;7.70;;;2.30;;
51066;SDS011;37112;45.892;-123.962;2023-03-13T04:29:43;17.20;;;4.10;;
51066;SDS011;37112;45.892;-123.962;2023-03-13T04:32:43;11.00;;;2.50;;
51066;SDS011;37112;45.892;-123.962;2023-03-13T04:35:34;17.50;;;2.90;;
51066;SDS011;37112;45.892;-123.962;2023-03-13T04:37:59;16.80;;;3.40;;
51066;SDS011;37112;45.892;-123.962;2023-03-13T04:40:54;15.20;;;3.60;;
51066;SDS011;37112;45.892;-123.962;2023-03-13T04:43:30;22.10;;;2.20;;
51066;SDS011;37112;45.892;-123.962;2023-03-13T04:46:01;7.10;;;1.60;;
51066;SDS011;37112;45.892;-123.962;2023-03-13T04:48:33;23.20;;;4.20;;
51066;SDS011;37112;45.892;-123.962;2023-03-13T04:51:05;31.90;;;3.70;;
51066;SDS011;37112;45.892;-123.962;2023-03-13T04:53:48;20.10;;;3.60;;
51066;SDS011;37112;45.892;-123.962;2023-03-13T04:56:15;17.20;;;2.80;;
51066;SDS011;37112;45.892;-123.962;2023-03-13T04:59:14;11.20;;;2.50;;
51066;SDS011;37112;45.892;-123.962;2023-03-13T05:01:56;18.90;;;3.10;;
51066;SDS011;37112;45.892;-123.962;2023-03-13T05:04:22;21.70;;;3.40;;
51066;SDS011;37112;45.892;-123.962;2023-03-13T05:06:47;9.80;;;2.40;;
51066;SDS011;37112;45.892;-123.962;2023-03-13T05:09:16;11.90;;;1.80;;
51066;SDS011;37112;45.892;-123.962;2023-03-13T05:11:48;11.80;;;2.80;;
51066;SDS011;37112;45.892;-123.962;2023-03-13T05:14:24;20.90;;;4.00;;
51066;SDS011;37112;45.892;-123.962;2023-03-13T05:17:08;21.00;;;3.40;;
51066;SDS011;37112;45.892;-123.962;2023-03-13T05:19:37;16.70;;;4.60;;
51066;SDS011;37112;45.892;-123.962;2023-03-13T05:22:21;9.70;;;2.00;;
51066;SDS011;37112;45.892;-123.962;2023-03-13T05:24:59;14.20;;;2.90;;
51066;SDS011;37112;45.892;-123.962;2023-03-13T05:27:28;13.60;;;2.50;;
51066;SDS011;37112;45.892;-123.962;2023-03-13T05:30:23;13.90;;;2.50;;
51066;SDS011;37112;45.892;-123.962;2023-03-13T05:32:58;15.70;;;3.00;;
51066;SDS011;37112;45.892;-123.962;2023-03-13T05:35:35;18.50;;;2.30;;
51066;SDS011;37112;45.892;-123.962;2023-03-13T05:38:21;17.60;;;2.30;;
51066;SDS011;37112;45.892;-123.962;2023-03-13T05:41:18;13.50;;;2.50;;
51066;SDS011;37112;45.892;-123.962;2023-03-13T05:44:03;12.50;;;2.10;;
51066;SDS011;37112;45.892;-123.962;2023-03-13T05:46:51;9.80;;;1.60;;
51066;SDS011;37112;45.892;-123.962;2023-03-13T05:49:38;13.10;;;2.40;;
51066;SDS011;37112;45.892;-123.962;2023-03-13T05:52:10;18.20;;;2.70;;
51066;SDS011;37112;45.892;-123.962;2023-03-13T05:54:44;11.80;;;2.90;;
51066;SDS011;37112;45.892;-123.962;2023-03-13T05:57:21;16.10;;;3.50;;
51066;SDS011;37112;45.892;-123.962;2023-03-13T05:59:46;22.20;;;4.00;;
51066;SDS011;37112;45.892;-123.962;2023-03-13T06:02:19;17.10;;;3.30;;
51066;SDS011;37112;45.892;-123.962;2023-03-13T06:04:37;24.50;;;3.30;;
51066;SDS011;37112;45.892;-123.962;2023-03-13T06:06:52;18.80;;;4.00;;
51066;SDS011;37112;45.892;-123.962;2023-03-13T06:09:07;29.00;;;4.20;;
51066;SDS011;37112;45.892;-123.962;2023-03-13T06:11:23;21.70;;;3.50;;
51066;SDS011;37112;45.892;-123.962;2023-03-13T06:13:39;18.70;;;3.60;;
51066;SDS011;37112;45.892;-123.962;2023-03-13T06:16:07;23.30;;;4.60;;
51066;SDS011;37112;45.892;-123.962;2023-03-13T06:18:24;11.10;;;1.60;;
51066;SDS011;37112;45.892;-123.962;2023-03-13T06:20:47;15.70;;;2.70;;
51066;SDS011;37112;45.892;-123.962;2023-03-13T06:23:21;17.20;;;3.30;;
51066;SDS011;37112;45.892;-123.962;2023-03-13T06:25:39;21.90;;;3.40;;
51066;SDS011;37112;45.892;-123.962;2023-03-13T06:31:06;14.00;;;2.30;;
51066;SDS011;37112;45.892;-123.962;2023-03-13T06:33:39;10.30;;;2.00;;
51066;SDS011;37112;45.892;-123.962;2023-03-13T06:35:58;15.50;;;2.80;;
51066;SDS011;37112;45.892;-123.962;2023-03-13T06:38:21;11.80;;;2.00;;
51066;SDS011;37112;45.892;-123.962;2023-03-13T06:40:38;23.80;;;2.90;;
51066;SDS011;37112;45.892;-123.962;2023-03-13T06:43:03;11.40;;;2.10;;
51066;SDS011;37112;45.892;-123.962;2023-03-13T06:45:22;24.90;;;3.00;;
51066;SDS011;37112;45.892;-123.962;2023-03-13T06:47:45;15.90;;;1.70;;
51066;SDS011;37112;45.892;-123.962;2023-03-13T06:52:24;16.20;;;2.40;;
51066;SDS011;37112;45.892;-123.962;2023-03-13T06:54:57;16.80;;;2.50;;
51066;SDS011;37112;45.892;-123.962;2023-03-13T06:57:17;17.90;;;3.60;;
51066;SDS011;37112;45.892;-123.962;2023-03-13T06:59:39;29.30;;;3.70;;
51066;SDS011;37112;45.892;-123.962;2023-03-13T07:01:55;17.50;;;2.90;;
51066;SDS011;37112;45.892;-123.962;2023-03-13T07:04:12;21.60;;;4.70;;
51066;SDS011;37112;45.892;-123.962;2023-03-13T07:06:26;33.10;;;4.90;;
51066;SDS011;37112;45.892;-123.962;2023-03-13T07:08:39;28.20;;;4.80;;
51066;SDS011;37112;45.892;-123.962;2023-03-13T07:10:59;14.50;;;3.70;;
51066;SDS011;37112;45.892;-123.962;2023-03-13T07:13:13;15.60;;;2.70;;
51066;SDS011;37112;45.892;-123.962;2023-03-13T07:15:30;18.70;;;2.50;;
51066;SDS011;37112;45.892;-123.962;2023-03-13T07:17:43;36.80;;;4.70;;
51066;SDS011;37112;45.892;-123.962;2023-03-13T07:19:56;31.80;;;6.90;;
51066;SDS011;37112;45.892;-123.962;2023-03-13T07:22:10;17.10;;;2.70;;
51066;SDS011;37112;45.892;-123.962;2023-03-13T07:24:23;28.70;;;4.40;;
51066;SDS011;37112;45.892;-123.962;2023-03-13T07:26:36;18.20;;;2.90;;
51066;SDS011;37112;45.892;-123.962;2023-03-13T07:29:07;17.70;;;3.60;;
51066;SDS011;37112;45.892;-123.962;2023-03-13T07:31:21;16.60;;;2.30;;
51066;SDS011;37112;45.892;-123.962;2023-03-13T07:33:34;21.10;;;4.40;;
51066;SDS011;37112;45.892;-123.962;2023-03-13T07:35:50;15.80;;;2.20;;
51066;SDS011;37112;45.892;-123.962;2023-03-13T07:38:04;14.80;;;2.80;;
51066;SDS011;37112;45.892;-123.962;2023-03-13T07:40:18;6.20;;;1.20;;
51066;SDS011;37112;45.892;-123.962;2023-03-13T07:42:32;18.90;;;2.60;;
51066;SDS011;37112;45.892;-123.962;2023-03-13T07:44:45;15.80;;;2.80;;
51066;SDS011;37112;45.892;-123.962;2023-03-13T07:47:00;17.60;;;2.70;;
51066;SDS011;37112;45.892;-123.962;2023-03-13T07:49:13;18.40;;;3.10;;
51066;SDS011;37112;45.892;-123.962;2023-03-13T07:51:27;13.90;;;2.30;;
51066;SDS011;37112;45.892;-123.962;2023-03-13T07:53:49;14.50;;;3.20;;
51066;SDS011;37112;45.892;-123.962;2023-03-13T07:56:03;26.80;;;4.70;;
51066;SDS011;37112;45.892;-123.962;2023-03-13T07:58:19;14.00;;;2.80;;
51066;SDS011;37112;45.892;-123.962;2023-03-13T08:00:33;13.00;;;2.60;;
51066;SDS011;37112;45.892;-123.962;2023-03-13T08:02:46;22.70;;;3.90;;
51066;SDS011;37112;45.892;-123.962;2023-03-13T08:04:59;29.70;;;4.90;;
51066;SDS011;37112;45.892;-123.962;2023-03-13T08:07:13;22.90;;;2.90;;
51066;SDS011;37112;45.892;-123.962;2023-03-13T08:09:26;35.00;;;4.90;;
51066;SDS011;37112;45.892;-123.962;2023-03-13T08:11:43;24.20;;;2.90;;
51066;SDS011;37112;45.892;-123.962;2023-03-13T08:14:02;27.40;;;4.50;;
51066;SDS011;37112;45.892;-123.962;2023-03-13T08:16:17;23.20;;;3.90;;
51066;SDS011;37112;45.892;-123.962;2023-03-13T08:18:31;15.00;;;3.10;;
51066;SDS011;37112;45.892;-123.962;2023-03-13T08:20:45;24.10;;;4.10;;
51066;SDS011;37112;45.892;-123.962;2023-03-13T08:22:58;44.20;;;5.80;;
51066;SDS011;37112;45.892;-123.962;2023-03-13T08:25:12;29.30;;;4.90;;
51066;SDS011;37112;45.892;-123.962;2023-03-13T08:27:26;36.70;;;4.60;;
51066;SDS011;37112;45.892;-123.962;2023-03-13T08:29:41;25.10;;;3.90;;
51066;SDS011;37112;45.892;-123.962;2023-03-13T08:31:54;32.50;;;4.60;;
51066;SDS011;37112;45.892;-123.962;2023-03-13T08:34:07;31.60;;;4.40;;
51066;SDS011;37112;45.892;-123.962;2023-03-13T08:36:22;24.30;;;3.90;;
51066;SDS011;37112;45.892;-123.962;2023-03-13T08:38:37;38.30;;;4.60;;
51066;SDS011;37112;45.892;-123.962;2023-03-13T08:40:57;28.00;;;3.60;;
51066;SDS011;37112;45.892;-123.962;2023-03-13T08:43:11;18.70;;;3.40;;
51066;SDS011;37112;45.892;-123.962;2023-03-13T08:45:25;15.80;;;2.00;;
51066;SDS011;37112;45.892;-123.962;2023-03-13T08:47:39;12.30;;;2.00;;
51066;SDS011;37112;45.892;-123.962;2023-03-13T08:49:53;8.80;;;2.20;;
51066;SDS011;37112;45.892;-123.962;2023-03-13T08:52:07;8.50;;;1.50;;
51066;SDS011;37112;45.892;-123.962;2023-03-13T08:54:21;12.80;;;1.80;;
51066;SDS011;37112;45.892;-123.962;2023-03-13T08:56:34;4.50;;;1.40;;
51066;SDS011;37112;45.892;-123.962;2023-03-13T08:58:50;5.10;;;0.90;;
51066;SDS011;37112;45.892;-123.962;2023-03-13T09:01:06;5.80;;;1.10;;
51066;SDS011;37112;45.892;-123.962;2023-03-13T09:03:20;2.50;;;0.90;;
51066;SDS011;37112;45.892;-123.962;2023-03-13T09:05:35;3.90;;;0.70;;
51066;SDS011;37112;45.892;-123.962;2023-03-13T09:08:02;2.30;;;0.50;;
51066;SDS011;37112;45.892;-123.962;2023-03-13T09:10:15;2.40;;;1.00;;
51066;SDS011;37112;45.892;-123.962;2023-03-13T09:12:28;3.60;;;0.90;;
51066;SDS011;37112;45.892;-123.962;2023-03-13T09:14:41;4.40;;;1.20;;
51066;SDS011;37112;45.892;-123.962;2023-03-13T09:16:54;1.50;;;0.70;;
51066;SDS011;37112;45.892;-123.962;2023-03-13T09:19:07;7.90;;;1.70;;
51066;SDS011;37112;45.892;-123.962;2023-03-13T09:21:23;2.10;;;1.00;;
51066;SDS011;37112;45.892;-123.962;2023-03-13T09:23:37;4.90;;;1.60;;
51066;SDS011;37112;45.892;-123.962;2023-03-13T09:25:52;16.50;;;2.40;;
51066;SDS011;37112;45.892;-123.962;2023-03-13T09:28:06;22.90;;;3.90;;
51066;SDS011;37112;45.892;-123.962;2023-03-13T09:30:19;20.40;;;4.00;;
51066;SDS011;37112;45.892;-123.962;2023-03-13T09:32:32;14.80;;;2.30;;
51066;SDS011;37112;45.892;-123.962;2023-03-13T09:34:45;10.80;;;1.90;;
51066;SDS011;37112;45.892;-123.962;2023-03-13T09:36:58;19.60;;;4.40;;
51066;SDS011;37112;45.892;-123.962;2023-03-13T09:39:12;14.90;;;2.70;;
51066;SDS011;37112;45.892;-123.962;2023-03-13T09:41:28;15.10;;;3.00;;
51066;SDS011;37112;45.892;-123.962;2023-03-13T09:43:47;34.50;;;6.90;;
51066;SDS011;37112;45.892;-123.962;2023-03-13T09:46:05;48.60;;;9.90;;
51066;SDS011;37112;45.892;-123.962;2023-03-13T09:48:27;42.00;;;9.10;;
51066;SDS011;37112;45.892;-123.962;2023-03-13T09:50:44;44.30;;;8.40;;
51066;SDS011;37112;45.892;-123.962;2023-03-13T09:53:10;24.50;;;4.40;;
51066;SDS011;37112;45.892;-123.962;2023-03-13T09:55:31;40.80;;;7.60;;
51066;SDS011;37112;45.892;-123.962;2023-03-13T09:57:48;32.70;;;6.10;;
51066;SDS011;37112;45.892;-123.962;2023-03-13T10:00:05;15.10;;;3.50;;
51066;SDS011;37112;45.892;-123.962;2023-03-13T10:02:23;25.00;;;4.50;;
51066;SDS011;37112;45.892;-123.962;2023-03-13T10:04:43;20.20;;;4.50;;
51066;SDS011;37112;45.892;-123.962;2023-03-13T10:07:01;33.70;;;5.20;;
51066;SDS011;37112;45.892;-123.962;2023-03-13T10:09:16;21.30;;;2.90;;
51066;SDS011;37112;45.892;-123.962;2023-03-13T10:11:36;29.00;;;4.30;;
51066;SDS011;37112;45.892;-123.962;2023-03-13T10:13:56;22.30;;;3.30;;
51066;SDS011;37112;45.892;-123.962;2023-03-13T10:16:16;14.80;;;4.00;;
51066;SDS011;37112;45.892;-123.962;2023-03-13T10:18:34;23.90;;;3.40;;
51066;SDS011;37112;45.892;-123.962;2023-03-13T10:20:48;11.90;;;2.70;;
51066;SDS011;37112;45.892;-123.962;2023-03-13T10:23:04;11.70;;;2.60;;
51066;SDS011;37112;45.892;-123.962;2023-03-13T10:25:23;11.50;;;3.10;;
51066;SDS011;37112;45.892;-123.962;2023-03-13T10:27:47;31.20;;;5.30;;
51066;SDS011;37112;45.892;-123.962;2023-03-13T10:30:01;14.30;;;3.50;;
51066;SDS011;37112;45.892;-123.962;2023-03-13T10:32:16;18.20;;;2.90;;
51066;SDS011;37112;45.892;-123.962;2023-03-13T10:34:43;19.80;;;2.40;;
51066;SDS011;37112;45.892;-123.962;2023-03-13T10:39:16;7.70;;;1.40;;
51066;SDS011;37112;45.892;-123.962;2023-03-13T10:41:32;9.80;;;1.80;;
51066;SDS011;37112;45.892;-123.962;2023-03-13T10:43:50;8.10;;;2.30;;
51066;SDS011;37112;45.892;-123.962;2023-03-13T10:46:05;5.30;;;1.50;;
51066;SDS011;37112;45.892;-123.962;2023-03-13T10:48:20;11.00;;;1.30;;
51066;SDS011;37112;45.892;-123.962;2023-03-13T10:50:34;8.60;;;1.50;;
51066;SDS011;37112;45.892;-123.962;2023-03-13T10:52:51;6.10;;;1.80;;
51066;SDS011;37112;45.892;-123.962;2023-03-13T10:55:05;6.00;;;1.40;;
51066;SDS011;37112;45.892;-123.962;2023-03-13T10:57:26;6.50;;;1.50;;
51066;SDS011;37112;45.892;-123.962;2023-03-13T10:59:42;9.60;;;1.50;;
51066;SDS011;37112;45.892;-123.962;2023-03-13T11:02:00;6.20;;;1.10;;
51066;SDS011;37112;45.892;-123.962;2023-03-13T11:04:30;3.80;;;0.90;;
51066;SDS011;37112;45.892;-123.962;2023-03-13T11:06:45;4.80;;;1.70;;
51066;SDS011;37112;45.892;-123.962;2023-03-13T11:09:11;3.10;;;1.30;;
51066;SDS011;37112;45.892;-123.962;2023-03-13T11:11:26;7.00;;;1.20;;
51066;SDS011;37112;45.892;-123.962;2023-03-13T11:13:40;6.00;;;1.20;;
51066;SDS011;37112;45.892;-123.962;2023-03-13T11:15:56;5.20;;;1.50;;
51066;SDS011;37112;45.892;-123.962;2023-03-13T11:18:13;5.20;;;1.00;;
51066;SDS011;37112;45.892;-123.962;2023-03-13T11:20:34;3.90;;;1.10;;
51066;SDS011;37112;45.892;-123.962;2023-03-13T11:22:58;4.80;;;1.20;;
51066;SDS011;37112;45.892;-123.962;2023-03-13T11:25:21;3.90;;;1.00;;
51066;SDS011;37112;45.892;-123.962;2023-03-13T11:27:41;4.00;;;1.00;;
51066;SDS011;37112;45.892;-123.962;2023-03-13T11:30:03;1.70;;;1.10;;
51066;SDS011;37112;45.892;-123.962;2023-03-13T11:32:29;3.30;;;1.00;;
51066;SDS011;37112;45.892;-123.962;2023-03-13T11:34:49;3.50;;;0.80;;
51066;SDS011;37112;45.892;-123.962;2023-03-13T11:37:08;1.40;;;0.80;;
51066;SDS011;37112;45.892;-123.962;2023-03-13T11:42:09;3.50;;;0.80;;
51066;SDS011;37112;45.892;-123.962;2023-03-13T11:44:42;0.80;;;0.60;;
51066;SDS011;37112;45.892;-123.962;2023-03-13T11:47:13;2.70;;;0.60;;
51066;SDS011;37112;45.892;-123.962;2023-03-13T11:49:41;3.50;;;0.60;;
51066;SDS011;37112;45.892;-123.962;2023-03-13T11:52:21;4.40;;;1.10;;
51066;SDS011;37112;45.892;-123.962;2023-03-13T11:54:49;3.20;;;0.90;;
51066;SDS011;37112;45.892;-123.962;2023-03-13T11:57:23;3.90;;;1.10;;
51066;SDS011;37112;45.892;-123.962;2023-03-13T11:59:40;7.90;;;1.70;;
51066;SDS011;37112;45.892;-123.962;2023-03-13T12:02:01;6.70;;;1.60;;
51066;SDS011;37112;45.892;-123.962;2023-03-13T12:04:27;5.60;;;2.10;;
51066;SDS011;37112;45.892;-123.962;2023-03-13T12:06:45;7.50;;;1.60;;
51066;SDS011;37112;45.892;-123.962;2023-03-13T12:09:02;6.30;;;1.00;;
51066;SDS011;37112;45.892;-123.962;2023-03-13T12:11:21;8.40;;;1.50;;
51066;SDS011;37112;45.892;-123.962;2023-03-13T12:13:38;14.10;;;2.80;;
51066;SDS011;37112;45.892;-123.962;2023-03-13T12:15:55;20.90;;;3.50;;
51066;SDS011;37112;45.892;-123.962;2023-03-13T12:18:16;36.60;;;6.30;;
51066;SDS011;37112;45.892;-123.962;2023-03-13T12:20:36;33.50;;;4.50;;
51066;SDS011;37112;45.892;-123.962;2023-03-13T12:22:56;26.00;;;4.40;;
51066;SDS011;37112;45.892;-123.962;2023-03-13T12:25:18;23.70;;;3.90;;
51066;SDS011;37112;45.892;-123.962;2023-03-13T12:27:35;16.80;;;3.80;;
51066;SDS011;37112;45.892;-123.962;2023-03-13T12:29:52;24.70;;;4.90;;
51066;SDS011;37112;45.892;-123.962;2023-03-13T12:32:11;10.10;;;1.60;;
51066;SDS011;37112;45.892;-123.962;2023-03-13T12:34:29;7.80;;;1.10;;
51066;SDS011;37112;45.892;-123.962;2023-03-13T12:36:48;6.10;;;1.50;;
51066;SDS011;37112;45.892;-123.962;2023-03-13T12:39:13;3.00;;;1.80;;
51066;SDS011;37112;45.892;-123.962;2023-03-13T12:41:36;6.50;;;1.30;;
51066;SDS011;37112;45.892;-123.962;2023-03-13T12:43:53;4.30;;;1.10;;
51066;SDS011;37112;45.892;-123.962;2023-03-13T12:49:05;2.30;;;0.80;;
51066;SDS011;37112;45.892;-123.962;2023-03-13T12:51:39;7.30;;;1.40;;
51066;SDS011;37112;45.892;-123.962;2023-03-13T12:56:56;4.50;;;0.70;;
51066;SDS011;37112;45.892;-123.962;2023-03-13T12:59:22;0.80;;;0.60;;
51066;SDS011;37112;45.892;-123.962;2023-03-13T13:01:41;1.40;;;0.60;;
51066;SDS011;37112;45.892;-123.962;2023-03-13T13:03:57;0.90;;;0.50;;
51066;SDS011;37112;45.892;-123.962;2023-03-13T13:06:15;1.30;;;0.70;;
51066;SDS011;37112;45.892;-123.962;2023-03-13T13:08:30;4.00;;;0.90;;
51066;SDS011;37112;45.892;-123.962;2023-03-13T13:10:46;3.30;;;0.70;;
51066;SDS011;37112;45.892;-123.962;2023-03-13T13:13:18;2.60;;;0.80;;
51066;SDS011;37112;45.892;-123.962;2023-03-13T13:15:41;1.60;;;0.50;;
51066;SDS011;37112;45.892;-123.962;2023-03-13T13:18:15;2.30;;;1.20;;
51066;SDS011;37112;45.892;-123.962;2023-03-13T13:20:41;3.70;;;0.90;;
51066;SDS011;37112;45.892;-123.962;2023-03-13T13:25:51;0.40;;;0.40;;
51066;SDS011;37112;45.892;-123.962;2023-03-13T13:30:50;1.60;;;0.60;;
51066;SDS011;37112;45.892;-123.962;2023-03-13T13:36:02;1.10;;;0.60;;
51066;SDS011;37112;45.892;-123.962;2023-03-13T13:38:39;0.60;;;0.50;;
51066;SDS011;37112;45.892;-123.962;2023-03-13T13:41:00;0.90;;;0.60;;
51066;SDS011;37112;45.892;-123.962;2023-03-13T13:43:33;1.10;;;0.50;;
51066;SDS011;37112;45.892;-123.962;2023-03-13T13:45:55;0.70;;;0.40;;
51066;SDS011;37112;45.892;-123.962;2023-03-13T13:48:14;0.40;;;0.40;;
51066;SDS011;37112;45.892;-123.962;2023-03-13T13:53:28;0.80;;;0.50;;
51066;SDS011;37112;45.892;-123.962;2023-03-13T13:55:48;0.80;;;0.50;;
51066;SDS011;37112;45.892;-123.962;2023-03-13T13:58:01;2.10;;;0.80;;
51066;SDS011;37112;45.892;-123.962;2023-03-13T14:00:21;1.40;;;0.50;;